createdAt,value
2022-11-15T00:03:38.095Z,30.9
2022-11-15T00:09:12.086Z,31.1
2022-11-15T00:14:34.050Z,30.7
2022-11-15T00:19:57.301Z,30.1
2022-11-15T00:25:34.738Z,29.6
2022-11-15T00:30:58.421Z,29.4
2022-11-15T00:36:37.099Z,29.2
2022-11-15T00:42:16.656Z,28.8
2022-11-15T00:47:37.640Z,28.5
2022-11-15T00:53:01.136Z,28.2
2022-11-15T00:58:38.426Z,28
2022-11-15T01:09:40.548Z,27.6
2022-11-15T01:15:17.617Z,27.4
2022-11-15T01:20:55.065Z,27.2
2022-11-15T01:26:33.440Z,26.9
2022-11-15T01:32:10.715Z,26.5
2022-11-15T01:37:48.128Z,26.2
2022-11-15T01:43:25.643Z,25.9
2022-11-15T01:48:47.269Z,25.8
2022-11-15T01:54:25.110Z,25.6
2022-11-15T02:00:03.012Z,25.3
2022-11-15T02:05:25.293Z,25
2022-11-15T02:10:16.780Z,24.8
2022-11-15T02:15:53.634Z,24.5
2022-11-15T02:21:29.536Z,24.3
2022-11-15T02:26:36.652Z,27.3
2022-11-15T02:32:14.165Z,26.3
2022-11-15T02:37:50.642Z,25.8
2022-11-15T02:43:12.052Z,25.5
2022-11-15T02:48:49.776Z,25.3
2022-11-15T02:53:40.584Z,25.1
2022-11-15T02:59:17.400Z,24.9
2022-11-15T03:04:40.460Z,24.7
2022-11-15T03:10:17.703Z,24.4
2022-11-15T03:15:39.397Z,24.3
2022-11-15T03:20:45.584Z,24.1
2022-11-15T03:25:50.921Z,23.9
2022-11-15T03:31:12.408Z,23.7
2022-11-15T03:36:53.347Z,23.5
2022-11-15T03:42:20.713Z,23.4
2022-11-15T03:47:57.459Z,23.3
2022-11-15T03:53:34.657Z,23.1
2022-11-15T03:58:56.270Z,23
2022-11-15T04:04:03.897Z,22.9
2022-11-15T04:09:42.261Z,22.8
2022-11-15T04:14:32.110Z,22.7
2022-11-15T04:20:09.637Z,22.6
2022-11-15T04:25:53.600Z,22.5
2022-11-15T04:31:14.943Z,22.4
2022-11-15T04:36:52.971Z,22.3
2022-11-15T04:42:36.092Z,22.2
2022-11-15T04:48:12.063Z,22.1
2022-11-15T04:53:34.263Z,22.1
2022-11-15T04:58:56.932Z,22
2022-11-15T05:04:45.026Z,21.9
2022-11-15T05:10:07.725Z,21.9
2022-11-15T05:15:30.526Z,21.8
2022-11-15T05:21:09.198Z,21.7
2022-11-15T05:26:32.099Z,21.7
2022-11-15T05:32:09.658Z,21.6
2022-11-15T05:37:31.481Z,21.6
2022-11-15T05:42:53.170Z,21.5
2022-11-15T05:48:30.964Z,21.4
2022-11-15T05:53:56.813Z,21.4
2022-11-15T05:59:18.637Z,21.4
2022-11-15T06:04:42.103Z,21.3
2022-11-15T06:10:19.550Z,21.3
2022-11-15T06:15:57.644Z,21.2
2022-11-15T06:21:25.703Z,21.2
2022-11-15T06:27:02.218Z,21.2
2022-11-15T06:38:01.900Z,21.1
2022-11-15T06:43:38.466Z,21.1
2022-11-15T06:49:15.792Z,21
2022-11-15T06:54:53.662Z,21
2022-11-15T07:00:30.880Z,21
2022-11-15T07:06:09.014Z,20.9
2022-11-15T07:11:46.595Z,20.9
2022-11-15T07:17:28.937Z,20.9
2022-11-15T07:22:51.573Z,20.9
2022-11-15T07:28:15.705Z,20.8
2022-11-15T07:33:37.469Z,20.7
2022-11-15T07:39:16.015Z,20.8
2022-11-15T07:44:53.288Z,20.8
2022-11-15T07:50:25.376Z,20.7
2022-11-15T07:55:48.401Z,20.7
2022-11-15T08:01:26.800Z,20.7
2022-11-15T08:07:05.577Z,20.6
2022-11-15T08:12:43.598Z,20.6
2022-11-15T08:18:26.879Z,20.6
2022-11-15T08:24:05.182Z,20.6
2022-11-15T08:29:43.455Z,20.6
2022-11-15T08:35:24.843Z,20.6
2022-11-15T08:41:13.795Z,20.6
2022-11-15T08:46:52.688Z,20.5
2022-11-15T08:52:30.902Z,20.5
2022-11-15T08:58:10.609Z,20.5
2022-11-15T09:03:49.248Z,20.4
2022-11-15T09:09:56.312Z,20.4
2022-11-15T09:15:38.670Z,20.4
2022-11-15T09:21:24.713Z,20.4
2022-11-15T09:27:06.627Z,20.4
2022-11-15T09:33:18.233Z,20.4
2022-11-15T09:39:03.785Z,20.4
2022-11-15T09:44:42.478Z,20.4
2022-11-15T09:50:19.316Z,20.4
2022-11-15T09:57:04.898Z,20.3
2022-11-15T10:02:59.392Z,20.3
2022-11-15T10:08:26.940Z,20.3
2022-11-15T10:14:44.275Z,20.3
2022-11-15T10:20:22.984Z,20.3
2022-11-15T10:25:44.927Z,20.3
2022-11-15T10:31:30.929Z,20.3
2022-11-15T10:37:07.822Z,20.3
2022-11-15T10:44:25.922Z,20.3
2022-11-15T10:50:42.791Z,20.3
2022-11-15T10:56:25.152Z,20.3
2022-11-15T11:02:08.064Z,20.3
2022-11-15T11:07:53.122Z,20.2
2022-11-15T11:14:06.039Z,20.3
2022-11-15T11:19:43.699Z,20.2
2022-11-15T11:25:11.726Z,20.2
2022-11-15T11:30:50.077Z,20.2
2022-11-15T11:36:31.157Z,20.2
2022-11-15T11:41:54.169Z,20.2
2022-11-15T11:47:31.589Z,20.2
2022-11-15T11:53:10.344Z,20.1
2022-11-15T11:58:49.000Z,20.1
2022-11-15T12:04:32.970Z,20.1
2022-11-15T12:10:15.386Z,20.1
2022-11-15T12:15:54.092Z,20.1
2022-11-15T12:21:32.568Z,20.1
2022-11-15T12:27:08.692Z,20.1
2022-11-15T12:33:00.518Z,20.1
2022-11-15T12:38:38.075Z,20.1
2022-11-15T12:43:47.728Z,20.1
2022-11-15T12:48:54.782Z,20.1
2022-11-15T12:54:16.948Z,20.1
2022-11-15T12:59:55.115Z,20.1
2022-11-15T13:05:33.145Z,20.1
2022-11-15T13:11:14.410Z,20.1
2022-11-15T13:16:51.281Z,20.1
2022-11-15T13:22:29.527Z,20.1
2022-11-15T13:27:51.927Z,20
2022-11-15T13:33:12.806Z,20
2022-11-15T13:39:25.048Z,20
2022-11-15T13:45:02.719Z,20
2022-11-15T13:50:45.438Z,20
2022-11-15T13:56:24.035Z,19.9
2022-11-15T14:02:02.127Z,19.9
2022-11-15T14:07:43.324Z,19.9
2022-11-15T14:13:23.033Z,19.9
2022-11-15T14:18:45.741Z,19.9
2022-11-15T14:24:07.566Z,19.9
2022-11-15T14:29:33.453Z,19.8
2022-11-15T14:34:54.680Z,19.9
2022-11-15T14:40:32.291Z,19.8
2022-11-15T14:45:39.350Z,32.1
2022-11-15T14:51:02.172Z,36.3
2022-11-15T14:56:30.149Z,39.3
2022-11-15T15:01:58.634Z,41.1
2022-11-15T15:07:25.634Z,42.1
2022-11-15T15:13:13.211Z,42.1
2022-11-15T15:18:37.301Z,41.8
2022-11-15T15:24:07.187Z,42.9
2022-11-15T15:29:14.491Z,42.8
2022-11-15T15:34:36.840Z,42.4
2022-11-15T15:39:59.382Z,42.4
2022-11-15T15:45:23.420Z,38.6
2022-11-15T15:50:46.825Z,41.2
2022-11-15T15:56:16.872Z,43.1
2022-11-15T16:00:55.769Z,43.1
2022-11-15T16:06:18.154Z,43.2
2022-11-15T16:11:55.089Z,43.4
2022-11-15T16:17:17.545Z,43.5
2022-11-15T16:22:40.241Z,43.6
2022-11-15T16:28:02.911Z,43.5
2022-11-15T16:33:27.603Z,43.1
2022-11-15T16:39:00.909Z,42.9
2022-11-15T16:44:07.882Z,42.9
2022-11-15T16:49:34.116Z,43.1
2022-11-15T16:54:56.394Z,43.1
2022-11-15T17:00:18.763Z,43.1
2022-11-15T17:05:30.077Z,43.1
2022-11-15T17:10:37.724Z,40.9
2022-11-15T17:15:59.635Z,43.1
2022-11-15T17:21:21.436Z,43.1
2022-11-15T17:27:04.174Z,42.9
2022-11-15T17:31:55.748Z,41.8
2022-11-15T17:37:17.889Z,41.9
2022-11-15T17:42:55.685Z,42.4
2022-11-15T17:48:18.571Z,43.1
2022-11-15T17:53:46.310Z,43.4
2022-11-15T17:59:31.239Z,43.3
2022-11-15T18:04:54.332Z,42.9
2022-11-15T18:10:33.583Z,42.1
2022-11-15T18:15:55.890Z,42.1
2022-11-15T18:21:38.262Z,42
2022-11-15T18:27:17.632Z,41.9
2022-11-15T18:32:40.317Z,42.1
2022-11-15T18:38:04.286Z,42.3
2022-11-15T18:43:46.716Z,41.8
2022-11-15T18:49:09.674Z,41.8
2022-11-15T18:54:32.225Z,41.8
2022-11-15T19:00:09.751Z,42.7
2022-11-15T19:05:52.218Z,43.3
2022-11-15T19:11:35.395Z,43.4
2022-11-15T19:17:12.359Z,42.9
2022-11-15T19:22:54.852Z,42.8
2022-11-15T19:28:32.349Z,42.6
2022-11-15T19:34:15.314Z,43
2022-11-15T19:39:57.564Z,43.3
2022-11-15T19:45:20.313Z,42.1
2022-11-15T19:51:04.840Z,42.3
2022-11-15T19:56:30.362Z,43.8
2022-11-15T20:02:08.134Z,44
2022-11-15T20:07:32.407Z,43.9
2022-11-15T20:12:54.836Z,43.4
2022-11-15T20:18:35.103Z,41.7
2022-11-15T20:24:13.554Z,38.5
2022-11-15T20:29:51.550Z,38
2022-11-15T20:35:29.336Z,37.1
2022-11-15T20:40:54.781Z,37.3
2022-11-15T20:46:35.137Z,37.1
2022-11-15T20:52:48.264Z,36.4
2022-11-15T20:58:11.095Z,35.6
2022-11-15T21:03:35.069Z,34.6
2022-11-15T21:09:18.808Z,33.3
2022-11-15T21:14:42.756Z,32.1
2022-11-15T21:20:26.302Z,31.3
2022-11-15T21:25:49.044Z,30.6
2022-11-15T21:31:27.253Z,29.9
2022-11-15T21:36:55.128Z,29.5
2022-11-15T21:42:33.863Z,29.1
2022-11-15T21:48:16.332Z,28.8
2022-11-15T21:53:39.288Z,27.1
2022-11-15T21:58:30.853Z,26.6
2022-11-15T22:03:53.978Z,26.4
2022-11-15T22:09:37.062Z,25.8
2022-11-15T22:15:00.783Z,25.4
2022-11-15T22:20:53.775Z,25.1
2022-11-15T22:26:19.479Z,25
2022-11-15T22:31:12.127Z,24.7
2022-11-15T22:37:20.197Z,24.6
2022-11-15T22:42:58.276Z,24.3
2022-11-15T22:48:35.649Z,24.3
2022-11-15T22:54:13.972Z,24
2022-11-15T22:59:41.827Z,23.9
2022-11-15T23:05:07.646Z,23.8
2022-11-15T23:10:45.442Z,23.8
2022-11-15T23:16:23.936Z,28.8
2022-11-15T23:22:25.322Z,28.7
2022-11-15T23:28:03.214Z,26.9
2022-11-15T23:33:42.405Z,26.1
2022-11-15T23:39:25.749Z,25.8
2022-11-15T23:45:09.549Z,25.3
2022-11-15T23:50:47.916Z,25
2022-11-15T23:56:24.313Z,24.6
